sensor_id;sensor_type;location;lat;lon;timestamp;P1;durP1;ratioP1;P2;durP2;ratioP2
9761;SDS011;4920;49.594;11.022;2023-03-14T00:00:06;1.53;;;0.87;;
9761;SDS011;4920;49.594;11.022;2023-03-14T00:02:37;2.73;;;0.97;;
9761;SDS011;4920;49.594;11.022;2023-03-14T00:05:07;2.20;;;1.10;;
9761;SDS011;4920;49.594;11.022;2023-03-14T00:07:37;1.20;;;0.90;;
9761;SDS011;4920;49.594;11.022;2023-03-14T00:10:08;1.47;;;1.00;;
9761;SDS011;4920;49.594;11.022;2023-03-14T00:12:40;1.03;;;0.87;;
9761;SDS011;4920;49.594;11.022;2023-03-14T00:15:11;1.23;;;0.87;;
9761;SDS011;4920;49.594;11.022;2023-03-14T00:17:42;1.00;;;0.90;;
9761;SDS011;4920;49.594;11.022;2023-03-14T00:20:11;1.80;;;0.80;;
9761;SDS011;4920;49.594;11.022;2023-03-14T00:22:40;1.77;;;0.90;;
9761;SDS011;4920;49.594;11.022;2023-03-14T00:25:09;1.80;;;1.00;;
9761;SDS011;4920;49.594;11.022;2023-03-14T00:27:39;2.50;;;0.90;;
9761;SDS011;4920;49.594;11.022;2023-03-14T00:30:08;1.80;;;0.83;;
9761;SDS011;4920;49.594;11.022;2023-03-14T00:32:39;0.80;;;0.80;;
9761;SDS011;4920;49.594;11.022;2023-03-14T00:35:08;2.10;;;0.80;;
9761;SDS011;4920;49.594;11.022;2023-03-14T00:37:37;0.90;;;0.70;;
9761;SDS011;4920;49.594;11.022;2023-03-14T00:40:06;3.33;;;0.80;;
9761;SDS011;4920;49.594;11.022;2023-03-14T00:42:36;1.40;;;0.70;;
9761;SDS011;4920;49.594;11.022;2023-03-14T00:45:05;1.03;;;0.80;;
9761;SDS011;4920;49.594;11.022;2023-03-14T00:47:36;1.83;;;0.80;;
9761;SDS011;4920;49.594;11.022;2023-03-14T00:50:07;1.33;;;0.70;;
9761;SDS011;4920;49.594;11.022;2023-03-14T00:52:37;2.70;;;0.80;;
9761;SDS011;4920;49.594;11.022;2023-03-14T00:55:08;0.90;;;0.70;;
9761;SDS011;4920;49.594;11.022;2023-03-14T00:57:37;0.83;;;0.70;;
9761;SDS011;4920;49.594;11.022;2023-03-14T01:00:06;1.10;;;0.80;;
9761;SDS011;4920;49.594;11.022;2023-03-14T01:02:39;0.70;;;0.67;;
9761;SDS011;4920;49.594;11.022;2023-03-14T01:05:08;0.80;;;0.60;;
9761;SDS011;4920;49.594;11.022;2023-03-14T01:07:38;0.70;;;0.70;;
9761;SDS011;4920;49.594;11.022;2023-03-14T01:10:07;0.87;;;0.70;;
9761;SDS011;4920;49.594;11.022;2023-03-14T01:12:36;0.50;;;0.50;;
9761;SDS011;4920;49.594;11.022;2023-03-14T01:15:05;0.97;;;0.70;;
9761;SDS011;4920;49.594;11.022;2023-03-14T01:17:34;1.10;;;0.60;;
9761;SDS011;4920;49.594;11.022;2023-03-14T01:20:06;0.60;;;0.60;;
9761;SDS011;4920;49.594;11.022;2023-03-14T01:22:37;1.13;;;0.50;;
9761;SDS011;4920;49.594;11.022;2023-03-14T01:25:08;0.40;;;0.40;;
9761;SDS011;4920;49.594;11.022;2023-03-14T01:27:37;0.93;;;0.60;;
9761;SDS011;4920;49.594;11.022;2023-03-14T01:30:06;0.83;;;0.40;;
9761;SDS011;4920;49.594;11.022;2023-03-14T01:32:37;2.30;;;0.60;;
9761;SDS011;4920;49.594;11.022;2023-03-14T01:35:08;1.20;;;0.60;;
9761;SDS011;4920;49.594;11.022;2023-03-14T01:37:37;0.50;;;0.50;;
9761;SDS011;4920;49.594;11.022;2023-03-14T01:40:11;0.50;;;0.50;;
9761;SDS011;4920;49.594;11.022;2023-03-14T01:42:46;0.40;;;0.40;;
9761;SDS011;4920;49.594;11.022;2023-03-14T01:48:42;0.60;;;0.40;;
9761;SDS011;4920;49.594;11.022;2023-03-14T01:51:18;0.93;;;0.50;;
9761;SDS011;4920;49.594;11.022;2023-03-14T01:53:49;1.57;;;0.50;;
9761;SDS011;4920;49.594;11.022;2023-03-14T01:56:21;0.50;;;0.50;;
9761;SDS011;4920;49.594;11.022;2023-03-14T01:58:51;0.50;;;0.50;;
9761;SDS011;4920;49.594;11.022;2023-03-14T02:01:21;0.80;;;0.50;;
9761;SDS011;4920;49.594;11.022;2023-03-14T02:03:54;0.63;;;0.63;;
9761;SDS011;4920;49.594;11.022;2023-03-14T02:06:32;0.57;;;0.57;;
9761;SDS011;4920;49.594;11.022;2023-03-14T02:09:07;0.87;;;0.63;;
9761;SDS011;4920;49.594;11.022;2023-03-14T02:11:35;0.80;;;0.60;;
9761;SDS011;4920;49.594;11.022;2023-03-14T02:14:09;0.50;;;0.50;;
9761;SDS011;4920;49.594;11.022;2023-03-14T02:17:14;1.93;;;0.73;;
9761;SDS011;4920;49.594;11.022;2023-03-14T02:20:09;0.60;;;0.60;;
9761;SDS011;4920;49.594;11.022;2023-03-14T02:22:54;1.60;;;0.60;;
9761;SDS011;4920;49.594;11.022;2023-03-14T02:25:27;0.80;;;0.70;;
9761;SDS011;4920;49.594;11.022;2023-03-14T02:28:04;0.90;;;0.53;;
9761;SDS011;4920;49.594;11.022;2023-03-14T02:30:33;0.67;;;0.67;;
9761;SDS011;4920;49.594;11.022;2023-03-14T02:33:04;1.13;;;0.73;;
9761;SDS011;4920;49.594;11.022;2023-03-14T02:35:36;1.87;;;0.90;;
9761;SDS011;4920;49.594;11.022;2023-03-14T02:38:10;0.80;;;0.80;;
9761;SDS011;4920;49.594;11.022;2023-03-14T02:40:47;3.53;;;0.80;;
9761;SDS011;4920;49.594;11.022;2023-03-14T02:43:18;1.60;;;0.80;;
9761;SDS011;4920;49.594;11.022;2023-03-14T02:45:53;0.70;;;0.60;;
9761;SDS011;4920;49.594;11.022;2023-03-14T02:48:24;1.00;;;0.60;;
9761;SDS011;4920;49.594;11.022;2023-03-14T02:50:55;0.70;;;0.70;;
9761;SDS011;4920;49.594;11.022;2023-03-14T02:53:27;0.80;;;0.70;;
9761;SDS011;4920;49.594;11.022;2023-03-14T02:56:01;0.60;;;0.60;;
9761;SDS011;4920;49.594;11.022;2023-03-14T02:58:34;0.60;;;0.60;;
9761;SDS011;4920;49.594;11.022;2023-03-14T03:01:17;1.03;;;0.50;;
9761;SDS011;4920;49.594;11.022;2023-03-14T03:03:46;3.13;;;0.60;;
9761;SDS011;4920;49.594;11.022;2023-03-14T03:06:14;0.60;;;0.60;;
9761;SDS011;4920;49.594;11.022;2023-03-14T03:08:43;0.93;;;0.60;;
9761;SDS011;4920;49.594;11.022;2023-03-14T03:11:12;1.00;;;0.63;;
9761;SDS011;4920;49.594;11.022;2023-03-14T03:13:42;1.00;;;0.60;;
9761;SDS011;4920;49.594;11.022;2023-03-14T03:16:13;0.73;;;0.60;;
9761;SDS011;4920;49.594;11.022;2023-03-14T03:18:42;0.50;;;0.50;;
9761;SDS011;4920;49.594;11.022;2023-03-14T03:21:10;0.70;;;0.63;;
9761;SDS011;4920;49.594;11.022;2023-03-14T03:23:42;2.20;;;0.70;;
9761;SDS011;4920;49.594;11.022;2023-03-14T03:26:10;2.40;;;0.70;;
9761;SDS011;4920;49.594;11.022;2023-03-14T03:28:39;1.23;;;0.70;;
9761;SDS011;4920;49.594;11.022;2023-03-14T03:31:11;0.70;;;0.63;;
9761;SDS011;4920;49.594;11.022;2023-03-14T03:33:40;0.77;;;0.60;;
9761;SDS011;4920;49.594;11.022;2023-03-14T03:36:09;0.87;;;0.70;;
9761;SDS011;4920;49.594;11.022;2023-03-14T03:38:39;1.37;;;0.77;;
9761;SDS011;4920;49.594;11.022;2023-03-14T03:41:08;1.00;;;0.70;;
9761;SDS011;4920;49.594;11.022;2023-03-14T03:43:37;1.03;;;0.70;;
9761;SDS011;4920;49.594;11.022;2023-03-14T03:46:09;1.00;;;0.70;;
9761;SDS011;4920;49.594;11.022;2023-03-14T03:48:41;0.90;;;0.60;;
9761;SDS011;4920;49.594;11.022;2023-03-14T03:51:11;0.60;;;0.60;;
9761;SDS011;4920;49.594;11.022;2023-03-14T03:53:41;1.80;;;0.70;;
9761;SDS011;4920;49.594;11.022;2023-03-14T03:56:13;0.70;;;0.70;;
9761;SDS011;4920;49.594;11.022;2023-03-14T03:58:43;1.40;;;0.60;;
9761;SDS011;4920;49.594;11.022;2023-03-14T04:01:11;1.10;;;0.70;;
9761;SDS011;4920;49.594;11.022;2023-03-14T04:03:42;0.70;;;0.67;;
9761;SDS011;4920;49.594;11.022;2023-03-14T04:06:11;0.63;;;0.63;;
9761;SDS011;4920;49.594;11.022;2023-03-14T04:08:44;1.17;;;0.73;;
9761;SDS011;4920;49.594;11.022;2023-03-14T04:11:39;1.03;;;0.83;;
9761;SDS011;4920;49.594;11.022;2023-03-14T04:14:28;0.60;;;0.60;;
9761;SDS011;4920;49.594;11.022;2023-03-14T04:17:05;0.60;;;0.60;;
9761;SDS011;4920;49.594;11.022;2023-03-14T04:19:35;1.03;;;0.60;;
9761;SDS011;4920;49.594;11.022;2023-03-14T04:22:05;0.80;;;0.60;;
9761;SDS011;4920;49.594;11.022;2023-03-14T04:24:42;2.00;;;0.70;;
9761;SDS011;4920;49.594;11.022;2023-03-14T04:27:11;0.73;;;0.60;;
9761;SDS011;4920;49.594;11.022;2023-03-14T04:29:43;0.77;;;0.60;;
9761;SDS011;4920;49.594;11.022;2023-03-14T04:32:15;1.13;;;0.70;;
9761;SDS011;4920;49.594;11.022;2023-03-14T04:34:45;2.13;;;0.70;;
9761;SDS011;4920;49.594;11.022;2023-03-14T04:37:14;1.33;;;0.60;;
9761;SDS011;4920;49.594;11.022;2023-03-14T04:39:43;0.97;;;0.60;;
9761;SDS011;4920;49.594;11.022;2023-03-14T04:42:23;1.77;;;0.67;;
9761;SDS011;4920;49.594;11.022;2023-03-14T04:44:51;1.30;;;0.60;;
9761;SDS011;4920;49.594;11.022;2023-03-14T04:47:23;1.13;;;0.70;;
9761;SDS011;4920;49.594;11.022;2023-03-14T04:49:54;0.50;;;0.50;;
9761;SDS011;4920;49.594;11.022;2023-03-14T04:52:24;0.97;;;0.60;;
9761;SDS011;4920;49.594;11.022;2023-03-14T04:54:53;1.17;;;0.60;;
9761;SDS011;4920;49.594;11.022;2023-03-14T04:57:23;0.70;;;0.70;;
9761;SDS011;4920;49.594;11.022;2023-03-14T04:59:53;1.57;;;0.60;;
9761;SDS011;4920;49.594;11.022;2023-03-14T05:02:41;1.30;;;0.60;;
9761;SDS011;4920;49.594;11.022;2023-03-14T05:05:32;0.90;;;0.60;;
9761;SDS011;4920;49.594;11.022;2023-03-14T05:08:08;0.80;;;0.70;;
9761;SDS011;4920;49.594;11.022;2023-03-14T05:10:45;0.70;;;0.70;;
9761;SDS011;4920;49.594;11.022;2023-03-14T05:13:38;1.80;;;0.70;;
9761;SDS011;4920;49.594;11.022;2023-03-14T05:16:30;0.60;;;0.60;;
9761;SDS011;4920;49.594;11.022;2023-03-14T05:19:28;1.63;;;0.60;;
9761;SDS011;4920;49.594;11.022;2023-03-14T05:22:27;1.90;;;0.70;;
9761;SDS011;4920;49.594;11.022;2023-03-14T05:25:22;0.90;;;0.80;;
9761;SDS011;4920;49.594;11.022;2023-03-14T05:28:09;0.93;;;0.70;;
9761;SDS011;4920;49.594;11.022;2023-03-14T05:30:49;1.30;;;0.73;;
9761;SDS011;4920;49.594;11.022;2023-03-14T05:33:21;0.50;;;0.50;;
9761;SDS011;4920;49.594;11.022;2023-03-14T05:35:58;2.50;;;0.80;;
9761;SDS011;4920;49.594;11.022;2023-03-14T05:38:54;2.47;;;0.60;;
9761;SDS011;4920;49.594;11.022;2023-03-14T05:41:52;0.70;;;0.60;;
9761;SDS011;4920;49.594;11.022;2023-03-14T05:44:43;2.50;;;0.70;;
9761;SDS011;4920;49.594;11.022;2023-03-14T05:47:32;2.13;;;0.70;;
9761;SDS011;4920;49.594;11.022;2023-03-14T05:50:15;1.87;;;0.70;;
9761;SDS011;4920;49.594;11.022;2023-03-14T05:53:15;0.70;;;0.60;;
9761;SDS011;4920;49.594;11.022;2023-03-14T05:55:54;0.60;;;0.60;;
9761;SDS011;4920;49.594;11.022;2023-03-14T05:58:42;0.60;;;0.60;;
9761;SDS011;4920;49.594;11.022;2023-03-14T06:01:28;0.60;;;0.60;;
9761;SDS011;4920;49.594;11.022;2023-03-14T06:04:07;1.07;;;0.60;;
9761;SDS011;4920;49.594;11.022;2023-03-14T06:06:36;0.70;;;0.60;;
9761;SDS011;4920;49.594;11.022;2023-03-14T06:09:06;1.47;;;0.70;;
9761;SDS011;4920;49.594;11.022;2023-03-14T06:11:39;0.53;;;0.53;;
9761;SDS011;4920;49.594;11.022;2023-03-14T06:14:08;1.57;;;0.77;;
9761;SDS011;4920;49.594;11.022;2023-03-14T06:16:40;1.47;;;0.87;;
9761;SDS011;4920;49.594;11.022;2023-03-14T06:19:10;1.80;;;0.90;;
9761;SDS011;4920;49.594;11.022;2023-03-14T06:21:40;1.90;;;0.80;;
9761;SDS011;4920;49.594;11.022;2023-03-14T06:24:09;2.03;;;0.90;;
9761;SDS011;4920;49.594;11.022;2023-03-14T06:26:43;1.23;;;0.80;;
9761;SDS011;4920;49.594;11.022;2023-03-14T06:29:16;1.43;;;0.80;;
9761;SDS011;4920;49.594;11.022;2023-03-14T06:31:45;2.60;;;0.80;;
9761;SDS011;4920;49.594;11.022;2023-03-14T06:34:16;0.80;;;0.80;;
9761;SDS011;4920;49.594;11.022;2023-03-14T06:36:45;0.97;;;0.80;;
9761;SDS011;4920;49.594;11.022;2023-03-14T06:39:14;1.63;;;0.80;;
9761;SDS011;4920;49.594;11.022;2023-03-14T06:41:48;2.50;;;0.80;;
9761;SDS011;4920;49.594;11.022;2023-03-14T06:44:17;1.10;;;0.90;;
9761;SDS011;4920;49.594;11.022;2023-03-14T06:46:46;1.17;;;0.90;;
9761;SDS011;4920;49.594;11.022;2023-03-14T06:49:15;1.23;;;0.70;;
9761;SDS011;4920;49.594;11.022;2023-03-14T06:51:44;1.70;;;0.90;;
9761;SDS011;4920;49.594;11.022;2023-03-14T06:54:13;1.03;;;0.80;;
9761;SDS011;4920;49.594;11.022;2023-03-14T06:56:42;0.70;;;0.60;;
9761;SDS011;4920;49.594;11.022;2023-03-14T06:59:13;1.57;;;0.90;;
9761;SDS011;4920;49.594;11.022;2023-03-14T07:01:45;3.10;;;1.00;;
9761;SDS011;4920;49.594;11.022;2023-03-14T07:04:16;1.70;;;0.90;;
9761;SDS011;4920;49.594;11.022;2023-03-14T07:06:47;1.67;;;1.00;;
9761;SDS011;4920;49.594;11.022;2023-03-14T07:09:16;2.10;;;1.00;;
9761;SDS011;4920;49.594;11.022;2023-03-14T07:11:53;2.57;;;1.00;;
9761;SDS011;4920;49.594;11.022;2023-03-14T07:14:30;1.67;;;1.10;;
9761;SDS011;4920;49.594;11.022;2023-03-14T07:16:59;2.93;;;1.67;;
9761;SDS011;4920;49.594;11.022;2023-03-14T07:19:28;1.73;;;0.90;;
9761;SDS011;4920;49.594;11.022;2023-03-14T07:21:59;1.40;;;0.90;;
9761;SDS011;4920;49.594;11.022;2023-03-14T07:24:28;1.50;;;0.90;;
9761;SDS011;4920;49.594;11.022;2023-03-14T07:26:59;1.50;;;1.10;;
9761;SDS011;4920;49.594;11.022;2023-03-14T07:29:30;4.20;;;1.00;;
9761;SDS011;4920;49.594;11.022;2023-03-14T07:32:01;2.10;;;1.00;;
9761;SDS011;4920;49.594;11.022;2023-03-14T07:34:30;1.63;;;0.90;;
9761;SDS011;4920;49.594;11.022;2023-03-14T07:36:58;4.87;;;1.20;;
9761;SDS011;4920;49.594;11.022;2023-03-14T07:39:27;2.17;;;1.03;;
9761;SDS011;4920;49.594;11.022;2023-03-14T07:42:00;1.63;;;1.10;;
9761;SDS011;4920;49.594;11.022;2023-03-14T07:44:33;1.63;;;1.10;;
9761;SDS011;4920;49.594;11.022;2023-03-14T07:47:02;2.40;;;1.00;;
9761;SDS011;4920;49.594;11.022;2023-03-14T07:49:31;3.17;;;1.00;;
9761;SDS011;4920;49.594;11.022;2023-03-14T07:51:59;1.10;;;1.00;;
9761;SDS011;4920;49.594;11.022;2023-03-14T07:54:28;2.20;;;1.30;;
9761;SDS011;4920;49.594;11.022;2023-03-14T07:56:57;2.23;;;1.10;;
9761;SDS011;4920;49.594;11.022;2023-03-14T07:59:27;5.50;;;1.33;;
9761;SDS011;4920;49.594;11.022;2023-03-14T08:02:01;1.40;;;1.10;;
9761;SDS011;4920;49.594;11.022;2023-03-14T08:04:32;1.57;;;1.00;;
9761;SDS011;4920;49.594;11.022;2023-03-14T08:07:01;3.73;;;1.20;;
9761;SDS011;4920;49.594;11.022;2023-03-14T08:09:30;2.07;;;1.00;;
9761;SDS011;4920;49.594;11.022;2023-03-14T08:11:58;2.47;;;1.10;;
9761;SDS011;4920;49.594;11.022;2023-03-14T08:14:27;2.50;;;1.10;;
9761;SDS011;4920;49.594;11.022;2023-03-14T08:16:56;1.90;;;0.93;;
9761;SDS011;4920;49.594;11.022;2023-03-14T08:19:27;3.33;;;1.10;;
9761;SDS011;4920;49.594;11.022;2023-03-14T08:21:55;2.67;;;1.00;;
9761;SDS011;4920;49.594;11.022;2023-03-14T08:24:24;3.37;;;1.40;;
9761;SDS011;4920;49.594;11.022;2023-03-14T08:26:52;1.90;;;1.00;;
9761;SDS011;4920;49.594;11.022;2023-03-14T08:29:21;4.77;;;1.17;;
9761;SDS011;4920;49.594;11.022;2023-03-14T08:31:50;3.20;;;1.00;;
9761;SDS011;4920;49.594;11.022;2023-03-14T08:34:18;5.23;;;1.30;;
9761;SDS011;4920;49.594;11.022;2023-03-14T08:36:48;2.50;;;1.20;;
9761;SDS011;4920;49.594;11.022;2023-03-14T08:39:17;6.67;;;1.30;;
9761;SDS011;4920;49.594;11.022;2023-03-14T08:41:46;2.60;;;1.10;;
9761;SDS011;4920;49.594;11.022;2023-03-14T08:44:15;1.27;;;0.90;;
9761;SDS011;4920;49.594;11.022;2023-03-14T08:46:46;3.63;;;1.13;;
9761;SDS011;4920;49.594;11.022;2023-03-14T08:49:15;3.57;;;1.03;;
9761;SDS011;4920;49.594;11.022;2023-03-14T08:51:43;2.60;;;0.97;;
9761;SDS011;4920;49.594;11.022;2023-03-14T08:54:13;2.57;;;1.30;;
9761;SDS011;4920;49.594;11.022;2023-03-14T08:56:42;3.50;;;1.00;;
9761;SDS011;4920;49.594;11.022;2023-03-14T08:59:11;1.57;;;1.10;;
9761;SDS011;4920;49.594;11.022;2023-03-14T09:01:40;5.90;;;1.07;;
9761;SDS011;4920;49.594;11.022;2023-03-14T09:04:08;3.57;;;0.97;;
9761;SDS011;4920;49.594;11.022;2023-03-14T09:06:37;6.27;;;1.30;;
9761;SDS011;4920;49.594;11.022;2023-03-14T09:09:06;2.55;;;0.88;;
9761;SDS011;4920;49.594;11.022;2023-03-14T09:11:36;1.60;;;1.13;;
9761;SDS011;4920;49.594;11.022;2023-03-14T09:14:05;3.72;;;1.20;;
9761;SDS011;4920;49.594;11.022;2023-03-14T09:16:33;1.40;;;0.90;;
9761;SDS011;4920;49.594;11.022;2023-03-14T09:19:02;2.17;;;1.00;;
9761;SDS011;4920;49.594;11.022;2023-03-14T09:21:32;3.85;;;0.85;;
9761;SDS011;4920;49.594;11.022;2023-03-14T09:24:01;1.27;;;0.80;;
9761;SDS011;4920;49.594;11.022;2023-03-14T09:26:29;2.03;;;0.90;;
9761;SDS011;4920;49.594;11.022;2023-03-14T09:28:59;4.65;;;0.80;;
9761;SDS011;4920;49.594;11.022;2023-03-14T09:31:28;6.65;;;1.35;;
9761;SDS011;4920;49.594;11.022;2023-03-14T09:33:57;4.17;;;1.07;;
9761;SDS011;4920;49.594;11.022;2023-03-14T09:36:26;3.67;;;1.10;;
9761;SDS011;4920;49.594;11.022;2023-03-14T09:38:54;4.40;;;0.90;;
9761;SDS011;4920;49.594;11.022;2023-03-14T09:41:24;1.77;;;0.80;;
9761;SDS011;4920;49.594;11.022;2023-03-14T09:43:57;3.30;;;0.77;;
9761;SDS011;4920;49.594;11.022;2023-03-14T09:46:32;2.10;;;0.77;;
9761;SDS011;4920;49.594;11.022;2023-03-14T09:49:07;1.83;;;0.90;;
9761;SDS011;4920;49.594;11.022;2023-03-14T09:51:39;4.00;;;1.10;;
9761;SDS011;4920;49.594;11.022;2023-03-14T09:54:14;0.60;;;0.60;;
9761;SDS011;4920;49.594;11.022;2023-03-14T09:56:54;0.90;;;0.60;;
9761;SDS011;4920;49.594;11.022;2023-03-14T09:59:25;1.07;;;0.50;;
9761;SDS011;4920;49.594;11.022;2023-03-14T10:01:56;1.50;;;0.60;;
9761;SDS011;4920;49.594;11.022;2023-03-14T10:04:28;1.48;;;0.73;;
9761;SDS011;4920;49.594;11.022;2023-03-14T10:06:56;1.47;;;0.70;;
9761;SDS011;4920;49.594;11.022;2023-03-14T10:09:25;1.67;;;0.60;;
9761;SDS011;4920;49.594;11.022;2023-03-14T10:11:54;1.83;;;0.60;;
9761;SDS011;4920;49.594;11.022;2023-03-14T10:14:37;0.83;;;0.50;;
9761;SDS011;4920;49.594;11.022;2023-03-14T10:17:12;2.00;;;0.70;;
9761;SDS011;4920;49.594;11.022;2023-03-14T10:19:53;1.95;;;0.90;;
9761;SDS011;4920;49.594;11.022;2023-03-14T10:22:27;1.15;;;0.77;;
9761;SDS011;4920;49.594;11.022;2023-03-14T10:25:00;4.17;;;0.83;;
9761;SDS011;4920;49.594;11.022;2023-03-14T10:27:31;2.53;;;1.00;;
9761;SDS011;4920;49.594;11.022;2023-03-14T10:30:04;1.30;;;0.70;;
9761;SDS011;4920;49.594;11.022;2023-03-14T10:32:35;4.37;;;0.90;;
9761;SDS011;4920;49.594;11.022;2023-03-14T10:35:06;2.40;;;0.80;;
9761;SDS011;4920;49.594;11.022;2023-03-14T10:37:52;1.10;;;0.60;;
9761;SDS011;4920;49.594;11.022;2023-03-14T10:40:25;1.75;;;0.80;;
9761;SDS011;4920;49.594;11.022;2023-03-14T10:42:57;1.58;;;0.63;;
9761;SDS011;4920;49.594;11.022;2023-03-14T10:45:35;1.98;;;0.60;;
9761;SDS011;4920;49.594;11.022;2023-03-14T10:48:13;1.17;;;0.68;;
9761;SDS011;4920;49.594;11.022;2023-03-14T10:50:48;1.45;;;0.65;;
9761;SDS011;4920;49.594;11.022;2023-03-14T10:53:22;1.80;;;0.70;;
9761;SDS011;4920;49.594;11.022;2023-03-14T10:55:55;2.25;;;0.85;;
9761;SDS011;4920;49.594;11.022;2023-03-14T10:58:25;3.33;;;0.88;;
9761;SDS011;4920;49.594;11.022;2023-03-14T11:01:02;2.35;;;0.90;;
9761;SDS011;4920;49.594;11.022;2023-03-14T11:03:51;2.75;;;0.70;;
9761;SDS011;4920;49.594;11.022;2023-03-14T11:06:25;3.75;;;1.75;;
9761;SDS011;4920;49.594;11.022;2023-03-14T11:09:05;1.95;;;0.95;;
9761;SDS011;4920;49.594;11.022;2023-03-14T11:11:40;2.05;;;0.95;;
9761;SDS011;4920;49.594;11.022;2023-03-14T11:14:15;2.83;;;1.05;;
9761;SDS011;4920;49.594;11.022;2023-03-14T11:16:56;2.42;;;0.80;;
9761;SDS011;4920;49.594;11.022;2023-03-14T11:19:31;2.78;;;1.63;;
9761;SDS011;4920;49.594;11.022;2023-03-14T11:22:18;1.58;;;0.55;;
9761;SDS011;4920;49.594;11.022;2023-03-14T11:24:55;3.90;;;0.85;;
9761;SDS011;4920;49.594;11.022;2023-03-14T11:27:39;4.93;;;0.80;;
9761;SDS011;4920;49.594;11.022;2023-03-14T11:30:16;1.88;;;0.60;;
9761;SDS011;4920;49.594;11.022;2023-03-14T11:32:50;0.82;;;0.43;;
9761;SDS011;4920;49.594;11.022;2023-03-14T11:35:26;0.68;;;0.40;;
9761;SDS011;4920;49.594;11.022;2023-03-14T11:38:01;1.60;;;0.50;;
9761;SDS011;4920;49.594;11.022;2023-03-14T11:40:48;1.08;;;0.70;;
9761;SDS011;4920;49.594;11.022;2023-03-14T11:43:20;0.68;;;0.52;;
9761;SDS011;4920;49.594;11.022;2023-03-14T11:45:55;0.75;;;0.57;;
9761;SDS011;4920;49.594;11.022;2023-03-14T11:48:35;0.98;;;0.50;;
9761;SDS011;4920;49.594;11.022;2023-03-14T11:51:11;1.55;;;0.57;;
9761;SDS011;4920;49.594;11.022;2023-03-14T11:53:50;2.22;;;0.60;;
9761;SDS011;4920;49.594;11.022;2023-03-14T11:56:27;1.13;;;0.68;;
9761;SDS011;4920;49.594;11.022;2023-03-14T11:59:00;0.82;;;0.45;;
9761;SDS011;4920;49.594;11.022;2023-03-14T12:04:43;1.75;;;0.40;;
9761;SDS011;4920;49.594;11.022;2023-03-14T12:07:21;0.98;;;0.45;;
9761;SDS011;4920;49.594;11.022;2023-03-14T12:09:56;1.27;;;0.60;;
9761;SDS011;4920;49.594;11.022;2023-03-14T12:12:25;0.55;;;0.47;;
9761;SDS011;4920;49.594;11.022;2023-03-14T12:14:58;1.88;;;0.70;;
9761;SDS011;4920;49.594;11.022;2023-03-14T12:17:33;1.80;;;0.50;;
9761;SDS011;4920;49.594;11.022;2023-03-14T12:20:12;1.25;;;0.63;;
9761;SDS011;4920;49.594;11.022;2023-03-14T12:22:45;1.27;;;0.40;;
9761;SDS011;4920;49.594;11.022;2023-03-14T12:25:16;1.02;;;0.47;;
9761;SDS011;4920;49.594;11.022;2023-03-14T12:30:45;0.82;;;0.40;;
9761;SDS011;4920;49.594;11.022;2023-03-14T12:33:19;0.47;;;0.40;;
9761;SDS011;4920;49.594;11.022;2023-03-14T12:35:59;1.85;;;0.40;;
9761;SDS011;4920;49.594;11.022;2023-03-14T12:38:38;0.88;;;0.70;;
9761;SDS011;4920;49.594;11.022;2023-03-14T12:41:41;1.98;;;0.47;;
9761;SDS011;4920;49.594;11.022;2023-03-14T12:50:13;1.63;;;0.47;;
9761;SDS011;4920;49.594;11.022;2023-03-14T12:52:51;0.82;;;0.60;;
9761;SDS011;4920;49.594;11.022;2023-03-14T12:55:36;0.85;;;0.38;;
9761;SDS011;4920;49.594;11.022;2023-03-14T12:58:14;0.50;;;0.50;;
9761;SDS011;4920;49.594;11.022;2023-03-14T13:00:45;2.05;;;0.60;;
9761;SDS011;4920;49.594;11.022;2023-03-14T13:03:19;0.47;;;0.45;;
9761;SDS011;4920;49.594;11.022;2023-03-14T13:05:52;1.47;;;0.67;;
9761;SDS011;4920;49.594;11.022;2023-03-14T13:11:09;0.77;;;0.50;;
9761;SDS011;4920;49.594;11.022;2023-03-14T13:13:42;0.80;;;0.60;;
9761;SDS011;4920;49.594;11.022;2023-03-14T13:16:15;0.97;;;0.50;;
9761;SDS011;4920;49.594;11.022;2023-03-14T13:18:46;0.40;;;0.40;;
9761;SDS011;4920;49.594;11.022;2023-03-14T13:21:18;0.97;;;0.40;;
9761;SDS011;4920;49.594;11.022;2023-03-14T13:23:59;0.53;;;0.40;;
9761;SDS011;4920;49.594;11.022;2023-03-14T13:26:32;1.50;;;0.40;;
9761;SDS011;4920;49.594;11.022;2023-03-14T13:29:08;1.10;;;0.47;;
9761;SDS011;4920;49.594;11.022;2023-03-14T13:31:43;0.53;;;0.33;;
9761;SDS011;4920;49.594;11.022;2023-03-14T13:34:12;2.00;;;0.50;;
9761;SDS011;4920;49.594;11.022;2023-03-14T13:36:42;1.50;;;0.80;;
9761;SDS011;4920;49.594;11.022;2023-03-14T13:39:13;1.00;;;0.60;;
9761;SDS011;4920;49.594;11.022;2023-03-14T13:41:46;1.50;;;0.70;;
9761;SDS011;4920;49.594;11.022;2023-03-14T13:44:17;0.80;;;0.60;;
9761;SDS011;4920;49.594;11.022;2023-03-14T13:46:51;1.93;;;0.53;;
9761;SDS011;4920;49.594;11.022;2023-03-14T13:49:20;0.50;;;0.50;;
9761;SDS011;4920;49.594;11.022;2023-03-14T13:51:51;2.10;;;0.90;;
9761;SDS011;4920;49.594;11.022;2023-03-14T13:54:22;0.80;;;0.63;;
9761;SDS011;4920;49.594;11.022;2023-03-14T13:56:58;1.20;;;0.70;;
9761;SDS011;4920;49.594;11.022;2023-03-14T13:59:29;3.40;;;0.70;;
9761;SDS011;4920;49.594;11.022;2023-03-14T14:01:59;0.60;;;0.50;;
9761;SDS011;4920;49.594;11.022;2023-03-14T14:04:32;2.53;;;0.60;;
9761;SDS011;4920;49.594;11.022;2023-03-14T14:07:06;0.83;;;0.50;;
9761;SDS011;4920;49.594;11.022;2023-03-14T14:09:40;1.73;;;0.60;;
9761;SDS011;4920;49.594;11.022;2023-03-14T14:12:12;0.70;;;0.60;;
9761;SDS011;4920;49.594;11.022;2023-03-14T14:14:45;1.30;;;0.70;;
9761;SDS011;4920;49.594;11.022;2023-03-14T14:17:17;1.40;;;0.60;;
9761;SDS011;4920;49.594;11.022;2023-03-14T14:19:48;1.13;;;0.60;;
9761;SDS011;4920;49.594;11.022;2023-03-14T14:22:17;1.67;;;0.70;;
9761;SDS011;4920;49.594;11.022;2023-03-14T14:24:49;2.70;;;0.63;;
9761;SDS011;4920;49.594;11.022;2023-03-14T14:27:19;0.70;;;0.70;;
9761;SDS011;4920;49.594;11.022;2023-03-14T14:29:56;0.50;;;0.50;;
9761;SDS011;4920;49.594;11.022;2023-03-14T14:32:33;1.30;;;0.80;;
9761;SDS011;4920;49.594;11.022;2023-03-14T14:35:04;0.60;;;0.60;;
9761;SDS011;4920;49.594;11.022;2023-03-14T14:37:34;0.93;;;0.87;;
9761;SDS011;4920;49.594;11.022;2023-03-14T14:40:14;1.13;;;0.70;;
9761;SDS011;4920;49.594;11.022;2023-03-14T14:42:47;0.77;;;0.67;;
9761;SDS011;4920;49.594;11.022;2023-03-14T14:45:16;2.10;;;0.80;;
9761;SDS011;4920;49.594;11.022;2023-03-14T14:47:49;0.73;;;0.70;;
9761;SDS011;4920;49.594;11.022;2023-03-14T14:50:21;1.17;;;0.57;;
9761;SDS011;4920;49.594;11.022;2023-03-14T14:52:56;0.73;;;0.70;;
9761;SDS011;4920;49.594;11.022;2023-03-14T14:55:31;0.70;;;0.60;;
9761;SDS011;4920;49.594;11.022;2023-03-14T14:58:11;1.57;;;1.00;;
9761;SDS011;4920;49.594;11.022;2023-03-14T15:00:52;0.90;;;0.90;;
9761;SDS011;4920;49.594;11.022;2023-03-14T15:03:25;1.63;;;0.70;;
9761;SDS011;4920;49.594;11.022;2023-03-14T15:05:56;2.00;;;0.60;;
9761;SDS011;4920;49.594;11.022;2023-03-14T15:08:25;3.67;;;0.80;;
9761;SDS011;4920;49.594;11.022;2023-03-14T15:10:56;0.93;;;0.77;;
9761;SDS011;4920;49.594;11.022;2023-03-14T15:13:26;0.60;;;0.60;;
9761;SDS011;4920;49.594;11.022;2023-03-14T15:15:54;0.70;;;0.70;;
9761;SDS011;4920;49.594;11.022;2023-03-14T15:18:24;1.37;;;0.80;;
9761;SDS011;4920;49.594;11.022;2023-03-14T15:20:57;2.07;;;0.70;;
9761;SDS011;4920;49.594;11.022;2023-03-14T15:23:26;0.87;;;0.60;;
9761;SDS011;4920;49.594;11.022;2023-03-14T15:25:57;3.33;;;0.90;;
9761;SDS011;4920;49.594;11.022;2023-03-14T15:28:26;3.20;;;1.80;;
9761;SDS011;4920;49.594;11.022;2023-03-14T15:30:56;1.60;;;0.67;;
9761;SDS011;4920;49.594;11.022;2023-03-14T15:33:26;1.47;;;0.80;;
9761;SDS011;4920;49.594;11.022;2023-03-14T15:35:55;1.43;;;0.80;;
9761;SDS011;4920;49.594;11.022;2023-03-14T15:38:26;3.30;;;1.00;;
9761;SDS011;4920;49.594;11.022;2023-03-14T15:40:56;1.83;;;1.03;;
9761;SDS011;4920;49.594;11.022;2023-03-14T15:43:25;1.70;;;1.20;;
9761;SDS011;4920;49.594;11.022;2023-03-14T15:45:54;1.73;;;1.40;;
9761;SDS011;4920;49.594;11.022;2023-03-14T15:48:23;2.17;;;1.50;;
9761;SDS011;4920;49.594;11.022;2023-03-14T15:50:52;2.77;;;1.90;;
9761;SDS011;4920;49.594;11.022;2023-03-14T15:53:21;4.27;;;2.40;;